Gills Rock, WI

4:32 AM CST on January 24, 2017 (GMT -0600)
MNPDW3 | | Change Station
Active Advisory: Dense Fog Advisory

Elev 583 ft 45.29 °N, 86.98 °W | Updated 17 minutes ago

Overcast
Overcast
34.0 °F
Feels Like 29 °F
N
6.0
Wind Variable Wind from West
Gusts 8.0 mph

Today
High -- | Low -- °F
--% Chance of Precip.
Yesterday
High -- | Low -- °F
Precip. -- in
Pressure 29.88 in
Visibility 10.0 miles
Clouds Overcast 1600 ft
Windchill 29 °F
Dew Point Not available.
Humidity Not available.
Rainfall 0.00 in
Snow Depth Not available.
7:16 AM 4:44 PM
Waning Crescent, 12% visible
METAR KESC 240956Z AUTO 29003KT 10SM OVC016 01/01 A2980 RMK AO2 SLP117 T00110011 FZRANO
Pressure 29.88 in
Visibility 10.0 miles
Clouds Overcast 1600 ft
Windchill 29 °F
Dew Point Not available.
Humidity Not available.
Rainfall 0.00 in
Snow Depth Not available.
7:16 AM 4:44 PM
Waning Crescent, 12% visible
METAR KESC 240956Z AUTO 29003KT 10SM OVC016 01/01 A2980 RMK AO2 SLP117 T00110011 FZRANO

Get Your Daily Forecast Email!

Thanks for signing up!

Be on the lookout for a verification email in your inbox.

You'll start receiving the daily forecast at 8 AM.

×

10-Day Weather Forecast

Almanac

Astronomy

Jan. 24, 2017 Rise Set
Actual Time
Civil Twilight
Nautical Twilight
Astronomical Twilight
Moon
Length of Visible Light
Length of Day
Tomorrow will be .
, % of the Moon is Illuminated

Today's Extremes

State Highs State Lows

Community

WunderPhotos

Upload Photos

1,962,540 photos uploaded!

WunderBlog® & News

Nearby

Air Quality

  Air Quality AQ Index Pollutant
Not available.

Snow Depth

Station Depth Elevation

Earthquake Activity

City Distance Mag. Time & Date
Minimum magnitude displayed is 2.5.

Coastal Water Temperatures

Place Temperature

Stations

Nearby Weather Stations

Station Location Temp. Windchill Dew Point Humidity Wind Precip. Elev Updated Type
                   

Watches & Warnings

Dense Fog Advisory
Issued: 3:57 AM CST Jan. 24, 2017 – National Weather Service

... Dense fog advisory remains in effect until 10 am CST this
morning...

* dense fog will reduce visibilities to a quarter mile or less
through late morning.

* The dense fog will create locally hazardous travel conditions
due to poor visibilities.

Precautionary/preparedness actions...

A dense fog advisory means visibilities will frequently be
reduced to less than one quarter mile. If driving... slow down...
use your low beam headlights... and keep a safe distance from other
vehicles.


Kieckbusch